This is the latest recevied weather packets stored in our database for station/object KC4MCQ-10. If no packets are shown the sender has not sent any weather packets the latest 10 day(s).
| Time | Temp. | Humidity | Pressure | Rain* | Wind** | Luminosity | Snow |
|---|---|---|---|---|---|---|---|
| 1787413420 | 31.67° C | 73% | 1017.7 hPa | 17.78 mm | 0.89 m/s, 269° | - | - |
| 1787412811 | 31.67° C | 74% | 1017.7 hPa | 17.78 mm | 1.34 m/s, 215° | - | - |
| 1787412211 | 31.11° C | 76% | 1017.8 hPa | 17.78 mm | 1.34 m/s, 245° | - | - |
| 1787411610 | 30.56° C | 77% | 1017.9 hPa | 17.78 mm | 0.45 m/s, 215° | - | - |
| 1787410986 | 30° C | 78% | 1017.7 hPa | 17.78 mm | 0.89 m/s, 258° | - | - |
| 1787409171 | 29.44° C | 81% | 1017.7 hPa | 17.78 mm | 1.34 m/s, 217° | - | - |
| 1787408563 | 28.89° C | 82% | 1017.7 hPa | 17.78 mm | 0.89 m/s, 240° | - | - |
| 1787407947 | 28.89° C | 82% | 1017.9 hPa | 17.78 mm | 0.89 m/s, 272° | - | - |
| 1787407344 | 28.33° C | 84% | 1017.6 hPa | 17.78 mm | 1.34 m/s, 256° | - | - |
| 1787406727 | 28.33° C | 84% | 1017.7 hPa | 17.78 mm | 1.34 m/s, 228° | - | - |
| 1787406105 | 28.33° C | 84% | 1017.7 hPa | 17.78 mm | 0.89 m/s, 227° | - | - |
| 1787405481 | 27.78° C | 85% | 1017.5 hPa | 17.78 mm | 0.45 m/s, 136° | - | - |
| 1787404864 | 27.78° C | 86% | 1017.7 hPa | 17.78 mm | 0.45 m/s, 136° | - | - |
| 1787404240 | 26.67° C | 89% | 1017.6 hPa | 17.78 mm | 0 m/s | - | - |
| 1787403610 | 26.11° C | 90% | 1017.8 hPa | 17.78 mm | 0 m/s | - | - |
| 1787402986 | 26.11° C | 92% | 1017.9 hPa | 17.78 mm | 0 m/s | - | - |
| 1787402383 | 25.56° C | 93% | 1017.9 hPa | 17.78 mm | 0.45 m/s, 136° | - | - |
| 1787401747 | 25.56° C | 94% | 1017.9 hPa | 17.78 mm | 0 m/s | - | - |
| 1787401098 | 24.44° C | 94% | 1017.4 hPa | 17.78 mm | 0 m/s | - | - |
| 1787400441 | 24.44° C | 94% | 1017.3 hPa | 17.78 mm | 0 m/s | - | - |
| 1787399812 | 23.89° C | 93% | 1017.3 hPa | 17.78 mm | 0 m/s | - | - |
| 1787399197 | 23.33° C | 93% | 1017.2 hPa | 17.78 mm | 0 m/s | - | - |
| 1787398595 | 23.33° C | 93% | 1017 hPa | 17.78 mm | 0 m/s | - | - |
| 1787398276 | 23.33° C | 93% | 1017 hPa | 17.78 mm | 0.45 m/s, 136° | - | - |
| 1787397650 | 23.89° C | 93% | 1016.7 hPa | 17.78 mm | 0 m/s | - | - |
* Rain latest 24 hours (hover to see other rain measurements)
** Current wind speed in m/s (hover to see current wind gust speed)